sensor_id;sensor_type;location;lat;lon;timestamp;pressure;altitude;pressure_sealevel;temperature;humidity
56070;BME280;41944;52.078;-0.058;2022-07-22T00:00:54;102013.71;;;20.18;57.81
56070;BME280;41944;52.078;-0.058;2022-07-22T00:03:20;102012.70;;;20.25;57.60
56070;BME280;41944;52.078;-0.058;2022-07-22T00:05:47;102010.37;;;20.26;57.62
56070;BME280;41944;52.078;-0.058;2022-07-22T00:08:14;102010.11;;;20.14;57.86
56070;BME280;41944;52.078;-0.058;2022-07-22T00:10:42;102009.22;;;20.15;57.83
56070;BME280;41944;52.078;-0.058;2022-07-22T00:13:09;102007.16;;;19.88;58.61
56070;BME280;41944;52.078;-0.058;2022-07-22T00:15:36;102010.53;;;19.88;58.57
56070;BME280;41944;52.078;-0.058;2022-07-22T00:18:03;102009.47;;;19.95;58.35
56070;BME280;41944;52.078;-0.058;2022-07-22T00:20:31;102005.35;;;20.06;58.06
56070;BME280;41944;52.078;-0.058;2022-07-22T00:22:58;102005.15;;;19.95;58.25
56070;BME280;41944;52.078;-0.058;2022-07-22T00:25:25;102002.07;;;19.90;58.41
56070;BME280;41944;52.078;-0.058;2022-07-22T00:27:52;101995.08;;;19.94;58.08
56070;BME280;41944;52.078;-0.058;2022-07-22T00:30:18;101998.05;;;19.94;57.86
56070;BME280;41944;52.078;-0.058;2022-07-22T00:32:50;101997.16;;;19.88;57.96
56070;BME280;41944;52.078;-0.058;2022-07-22T00:35:17;101994.54;;;19.90;57.75
56070;BME280;41944;52.078;-0.058;2022-07-22T00:37:44;101992.88;;;19.89;57.15
56070;BME280;41944;52.078;-0.058;2022-07-22T00:40:12;101992.17;;;19.83;57.12
56070;BME280;41944;52.078;-0.058;2022-07-22T00:42:40;101990.76;;;19.92;56.59
56070;BME280;41944;52.078;-0.058;2022-07-22T00:45:08;101986.15;;;19.98;56.13
56070;BME280;41944;52.078;-0.058;2022-07-22T00:47:36;101986.34;;;19.82;56.22
56070;BME280;41944;52.078;-0.058;2022-07-22T00:50:05;101982.46;;;19.85;55.82
56070;BME280;41944;52.078;-0.058;2022-07-22T00:52:33;101975.72;;;19.90;55.76
56070;BME280;41944;52.078;-0.058;2022-07-22T00:55:01;101974.26;;;19.74;56.03
56070;BME280;41944;52.078;-0.058;2022-07-22T00:57:29;101974.53;;;19.76;55.99
56070;BME280;41944;52.078;-0.058;2022-07-22T00:59:56;101970.09;;;19.65;56.16
56070;BME280;41944;52.078;-0.058;2022-07-22T01:02:23;101972.77;;;19.80;55.79
56070;BME280;41944;52.078;-0.058;2022-07-22T01:04:50;101970.35;;;19.72;55.90
56070;BME280;41944;52.078;-0.058;2022-07-22T01:07:17;101970.54;;;19.73;55.95
56070;BME280;41944;52.078;-0.058;2022-07-22T01:09:44;101967.39;;;19.72;56.02
56070;BME280;41944;52.078;-0.058;2022-07-22T01:12:13;101968.44;;;19.43;56.95
56070;BME280;41944;52.078;-0.058;2022-07-22T01:14:39;101961.39;;;19.55;56.81
56070;BME280;41944;52.078;-0.058;2022-07-22T01:17:07;101960.07;;;19.67;56.57
56070;BME280;41944;52.078;-0.058;2022-07-22T01:19:35;101957.16;;;19.60;56.81
56070;BME280;41944;52.078;-0.058;2022-07-22T01:22:03;101960.81;;;19.58;57.03
56070;BME280;41944;52.078;-0.058;2022-07-22T01:24:30;101960.73;;;19.54;57.26
56070;BME280;41944;52.078;-0.058;2022-07-22T01:26:57;101959.27;;;19.52;57.43
56070;BME280;41944;52.078;-0.058;2022-07-22T01:29:23;101962.29;;;19.45;57.69
56070;BME280;41944;52.078;-0.058;2022-07-22T01:31:50;101965.49;;;19.35;58.09
56070;BME280;41944;52.078;-0.058;2022-07-22T01:34:17;101964.59;;;19.41;57.96
56070;BME280;41944;52.078;-0.058;2022-07-22T01:36:45;101965.31;;;19.36;58.22
56070;BME280;41944;52.078;-0.058;2022-07-22T01:39:12;101964.26;;;19.26;58.59
56070;BME280;41944;52.078;-0.058;2022-07-22T01:41:40;101966.11;;;19.31;58.56
56070;BME280;41944;52.078;-0.058;2022-07-22T01:44:07;101964.31;;;19.32;58.67
56070;BME280;41944;52.078;-0.058;2022-07-22T01:46:34;101961.00;;;19.31;58.84
56070;BME280;41944;52.078;-0.058;2022-07-22T01:49:00;101960.52;;;19.27;59.10
56070;BME280;41944;52.078;-0.058;2022-07-22T01:51:27;101956.56;;;19.16;59.52
56070;BME280;41944;52.078;-0.058;2022-07-22T01:53:54;101960.19;;;19.03;60.09
56070;BME280;41944;52.078;-0.058;2022-07-22T01:56:21;101952.87;;;19.23;59.61
56070;BME280;41944;52.078;-0.058;2022-07-22T01:58:48;101955.44;;;19.22;59.75
56070;BME280;41944;52.078;-0.058;2022-07-22T02:01:15;101955.43;;;19.26;59.75
56070;BME280;41944;52.078;-0.058;2022-07-22T02:03:41;101949.76;;;19.19;60.00
56070;BME280;41944;52.078;-0.058;2022-07-22T02:06:08;101951.59;;;19.16;60.26
56070;BME280;41944;52.078;-0.058;2022-07-22T02:08:35;101954.95;;;19.24;60.18
56070;BME280;41944;52.078;-0.058;2022-07-22T02:11:02;101951.86;;;19.24;60.13
56070;BME280;41944;52.078;-0.058;2022-07-22T02:13:29;101951.83;;;19.12;60.68
56070;BME280;41944;52.078;-0.058;2022-07-22T02:15:56;101946.92;;;19.10;60.84
56070;BME280;41944;52.078;-0.058;2022-07-22T02:18:23;101939.59;;;19.18;60.73
56070;BME280;41944;52.078;-0.058;2022-07-22T02:20:50;101940.79;;;19.19;60.73
56070;BME280;41944;52.078;-0.058;2022-07-22T02:23:17;101940.87;;;19.15;60.92
56070;BME280;41944;52.078;-0.058;2022-07-22T02:25:43;101942.37;;;19.13;61.02
56070;BME280;41944;52.078;-0.058;2022-07-22T02:28:10;101948.50;;;18.97;61.67
56070;BME280;41944;52.078;-0.058;2022-07-22T02:30:38;101947.75;;;19.06;61.52
56070;BME280;41944;52.078;-0.058;2022-07-22T02:33:05;101947.69;;;19.11;61.44
56070;BME280;41944;52.078;-0.058;2022-07-22T02:35:33;101951.98;;;19.04;61.69
56070;BME280;41944;52.078;-0.058;2022-07-22T02:38:01;101953.44;;;18.94;62.02
56070;BME280;41944;52.078;-0.058;2022-07-22T02:40:28;101945.06;;;19.14;61.45
56070;BME280;41944;52.078;-0.058;2022-07-22T02:42:54;101945.21;;;19.05;61.89
56070;BME280;41944;52.078;-0.058;2022-07-22T02:45:21;101941.96;;;18.96;62.18
56070;BME280;41944;52.078;-0.058;2022-07-22T02:47:51;101943.30;;;18.88;62.49
56070;BME280;41944;52.078;-0.058;2022-07-22T02:50:19;101939.00;;;18.87;62.62
56070;BME280;41944;52.078;-0.058;2022-07-22T02:52:45;101938.23;;;18.83;62.84
56070;BME280;41944;52.078;-0.058;2022-07-22T02:55:13;101941.85;;;18.83;62.93
56070;BME280;41944;52.078;-0.058;2022-07-22T02:57:41;101946.39;;;18.79;63.19
56070;BME280;41944;52.078;-0.058;2022-07-22T03:00:09;101947.03;;;18.77;63.32
56070;BME280;41944;52.078;-0.058;2022-07-22T03:02:36;101948.51;;;18.88;63.11
56070;BME280;41944;52.078;-0.058;2022-07-22T03:05:05;101943.70;;;19.04;62.57
56070;BME280;41944;52.078;-0.058;2022-07-22T03:07:33;101948.13;;;18.94;62.92
56070;BME280;41944;52.078;-0.058;2022-07-22T03:10:01;101945.61;;;18.96;62.98
56070;BME280;41944;52.078;-0.058;2022-07-22T03:12:29;101947.80;;;18.98;62.92
56070;BME280;41944;52.078;-0.058;2022-07-22T03:14:56;101951.11;;;18.99;63.05
56070;BME280;41944;52.078;-0.058;2022-07-22T03:17:24;101951.92;;;18.99;63.03
56070;BME280;41944;52.078;-0.058;2022-07-22T03:19:50;101950.71;;;18.84;63.61
56070;BME280;41944;52.078;-0.058;2022-07-22T03:22:17;101950.64;;;18.84;63.76
56070;BME280;41944;52.078;-0.058;2022-07-22T03:24:44;101953.19;;;18.91;63.61
56070;BME280;41944;52.078;-0.058;2022-07-22T03:27:11;101946.63;;;18.99;63.48
56070;BME280;41944;52.078;-0.058;2022-07-22T03:29:38;101948.24;;;18.93;63.60
56070;BME280;41944;52.078;-0.058;2022-07-22T03:32:05;101945.74;;;18.95;63.72
56070;BME280;41944;52.078;-0.058;2022-07-22T03:34:32;101939.59;;;18.78;64.27
56070;BME280;41944;52.078;-0.058;2022-07-22T03:36:59;101936.82;;;18.80;64.33
56070;BME280;41944;52.078;-0.058;2022-07-22T03:39:26;101935.82;;;18.89;64.12
56070;BME280;41944;52.078;-0.058;2022-07-22T03:41:53;101940.70;;;18.76;64.86
56070;BME280;41944;52.078;-0.058;2022-07-22T03:44:20;101939.10;;;18.58;65.60
56070;BME280;41944;52.078;-0.058;2022-07-22T03:46:47;101940.58;;;18.74;65.01
56070;BME280;41944;52.078;-0.058;2022-07-22T03:49:14;101939.60;;;18.79;64.93
56070;BME280;41944;52.078;-0.058;2022-07-22T03:51:41;101941.91;;;18.75;65.06
56070;BME280;41944;52.078;-0.058;2022-07-22T03:54:08;101939.71;;;18.63;65.49
56070;BME280;41944;52.078;-0.058;2022-07-22T03:56:35;101937.22;;;18.62;65.65
56070;BME280;41944;52.078;-0.058;2022-07-22T03:59:02;101940.13;;;18.67;65.49
56070;BME280;41944;52.078;-0.058;2022-07-22T04:01:29;101932.72;;;18.60;65.80
56070;BME280;41944;52.078;-0.058;2022-07-22T04:03:56;101927.85;;;18.72;65.48
56070;BME280;41944;52.078;-0.058;2022-07-22T04:06:23;101925.31;;;18.70;65.64
56070;BME280;41944;52.078;-0.058;2022-07-22T04:08:50;101923.07;;;18.76;65.44
56070;BME280;41944;52.078;-0.058;2022-07-22T04:11:17;101923.90;;;18.76;65.43
56070;BME280;41944;52.078;-0.058;2022-07-22T04:13:44;101922.05;;;18.71;65.65
56070;BME280;41944;52.078;-0.058;2022-07-22T04:16:11;101914.34;;;18.87;65.13
56070;BME280;41944;52.078;-0.058;2022-07-22T04:18:37;101915.97;;;18.78;65.44
56070;BME280;41944;52.078;-0.058;2022-07-22T04:21:04;101913.70;;;18.65;65.94
56070;BME280;41944;52.078;-0.058;2022-07-22T04:23:31;101910.09;;;18.73;65.77
56070;BME280;41944;52.078;-0.058;2022-07-22T04:25:58;101905.99;;;18.70;65.95
56070;BME280;41944;52.078;-0.058;2022-07-22T04:28:26;101902.10;;;18.59;66.39
56070;BME280;41944;52.078;-0.058;2022-07-22T04:30:54;101903.68;;;18.72;66.05
56070;BME280;41944;52.078;-0.058;2022-07-22T04:33:21;101910.22;;;18.77;65.88
56070;BME280;41944;52.078;-0.058;2022-07-22T04:35:48;101912.78;;;18.65;66.33
56070;BME280;41944;52.078;-0.058;2022-07-22T04:38:16;101911.96;;;18.69;66.25
56070;BME280;41944;52.078;-0.058;2022-07-22T04:40:43;101908.77;;;18.65;66.47
56070;BME280;41944;52.078;-0.058;2022-07-22T04:43:10;101906.87;;;18.78;66.03
56070;BME280;41944;52.078;-0.058;2022-07-22T04:45:37;101908.31;;;18.72;66.23
56070;BME280;41944;52.078;-0.058;2022-07-22T04:48:04;101906.46;;;18.70;66.43
56070;BME280;41944;52.078;-0.058;2022-07-22T04:50:32;101905.53;;;18.55;67.00
56070;BME280;41944;52.078;-0.058;2022-07-22T04:52:59;101899.34;;;18.78;66.34
56070;BME280;41944;52.078;-0.058;2022-07-22T04:55:26;101894.65;;;18.76;66.41
56070;BME280;41944;52.078;-0.058;2022-07-22T04:57:53;101895.26;;;18.72;66.61
56070;BME280;41944;52.078;-0.058;2022-07-22T05:00:20;101896.64;;;18.71;66.70
56070;BME280;41944;52.078;-0.058;2022-07-22T05:02:48;101897.33;;;18.68;66.89
56070;BME280;41944;52.078;-0.058;2022-07-22T05:05:16;101892.62;;;18.81;66.66
56070;BME280;41944;52.078;-0.058;2022-07-22T05:07:43;101891.69;;;18.76;66.75
56070;BME280;41944;52.078;-0.058;2022-07-22T05:10:10;101896.59;;;18.69;67.03
56070;BME280;41944;52.078;-0.058;2022-07-22T05:12:36;101893.56;;;18.64;67.32
56070;BME280;41944;52.078;-0.058;2022-07-22T05:15:04;101883.10;;;18.90;66.42
56070;BME280;41944;52.078;-0.058;2022-07-22T05:17:31;101888.19;;;18.95;66.28
56070;BME280;41944;52.078;-0.058;2022-07-22T05:19:58;101889.82;;;18.59;67.65
56070;BME280;41944;52.078;-0.058;2022-07-22T05:22:25;101885.31;;;18.87;66.81
56070;BME280;41944;52.078;-0.058;2022-07-22T05:24:52;101883.87;;;18.79;67.05
56070;BME280;41944;52.078;-0.058;2022-07-22T05:27:19;101885.71;;;18.83;66.95
56070;BME280;41944;52.078;-0.058;2022-07-22T05:29:46;101885.59;;;18.86;67.03
56070;BME280;41944;52.078;-0.058;2022-07-22T05:32:13;101884.28;;;18.88;67.10
56070;BME280;41944;52.078;-0.058;2022-07-22T05:34:41;101884.28;;;18.85;67.04
56070;BME280;41944;52.078;-0.058;2022-07-22T05:37:07;101886.58;;;18.98;66.51
56070;BME280;41944;52.078;-0.058;2022-07-22T05:39:34;101884.97;;;18.93;66.85
56070;BME280;41944;52.078;-0.058;2022-07-22T05:42:01;101884.45;;;18.91;66.96
56070;BME280;41944;52.078;-0.058;2022-07-22T05:44:28;101885.41;;;18.98;66.52
56070;BME280;41944;52.078;-0.058;2022-07-22T05:46:55;101886.49;;;19.08;66.27
56070;BME280;41944;52.078;-0.058;2022-07-22T05:49:22;101888.70;;;19.11;66.18
56070;BME280;41944;52.078;-0.058;2022-07-22T05:51:49;101887.51;;;19.08;66.26
56070;BME280;41944;52.078;-0.058;2022-07-22T05:54:15;101888.08;;;19.05;66.46
56070;BME280;41944;52.078;-0.058;2022-07-22T05:56:42;101887.57;;;19.03;67.48
56070;BME280;41944;52.078;-0.058;2022-07-22T05:59:09;101888.11;;;19.14;66.70
56070;BME280;41944;52.078;-0.058;2022-07-22T06:01:36;101892.51;;;19.08;66.72
56070;BME280;41944;52.078;-0.058;2022-07-22T06:04:03;101894.38;;;19.15;66.23
56070;BME280;41944;52.078;-0.058;2022-07-22T06:06:31;101898.22;;;19.11;66.25
56070;BME280;41944;52.078;-0.058;2022-07-22T06:08:58;101901.96;;;19.06;66.42
56070;BME280;41944;52.078;-0.058;2022-07-22T06:11:24;101902.32;;;19.09;66.39
56070;BME280;41944;52.078;-0.058;2022-07-22T06:13:51;101904.88;;;19.11;66.19
56070;BME280;41944;52.078;-0.058;2022-07-22T06:16:18;101903.65;;;19.05;66.33
56070;BME280;41944;52.078;-0.058;2022-07-22T06:18:45;101904.10;;;19.10;66.29
56070;BME280;41944;52.078;-0.058;2022-07-22T06:21:12;101907.40;;;19.03;66.39
56070;BME280;41944;52.078;-0.058;2022-07-22T06:23:39;101906.62;;;19.01;66.64
56070;BME280;41944;52.078;-0.058;2022-07-22T06:26:06;101906.86;;;18.93;67.00
56070;BME280;41944;52.078;-0.058;2022-07-22T06:28:33;101907.67;;;18.99;66.92
56070;BME280;41944;52.078;-0.058;2022-07-22T06:31:00;101909.49;;;19.05;66.72
56070;BME280;41944;52.078;-0.058;2022-07-22T06:33:27;101908.50;;;19.14;66.58
56070;BME280;41944;52.078;-0.058;2022-07-22T06:35:54;101907.36;;;19.13;66.24
56070;BME280;41944;52.078;-0.058;2022-07-22T06:38:21;101905.97;;;19.23;65.89
56070;BME280;41944;52.078;-0.058;2022-07-22T06:40:48;101908.36;;;19.35;65.61
56070;BME280;41944;52.078;-0.058;2022-07-22T06:43:15;101911.36;;;19.37;65.35
56070;BME280;41944;52.078;-0.058;2022-07-22T06:45:42;101912.56;;;19.32;65.32
56070;BME280;41944;52.078;-0.058;2022-07-22T06:48:09;101910.06;;;19.33;65.16
56070;BME280;41944;52.078;-0.058;2022-07-22T06:50:36;101910.02;;;19.34;65.25
56070;BME280;41944;52.078;-0.058;2022-07-22T06:53:03;101908.29;;;19.36;65.24
56070;BME280;41944;52.078;-0.058;2022-07-22T06:55:30;101903.26;;;19.41;65.10
56070;BME280;41944;52.078;-0.058;2022-07-22T06:57:57;101906.16;;;19.35;65.39
56070;BME280;41944;52.078;-0.058;2022-07-22T07:00:24;101900.57;;;19.46;64.87
56070;BME280;41944;52.078;-0.058;2022-07-22T07:02:51;101893.56;;;19.42;65.18
56070;BME280;41944;52.078;-0.058;2022-07-22T07:05:18;101886.31;;;19.42;64.94
56070;BME280;41944;52.078;-0.058;2022-07-22T07:07:45;101885.46;;;19.52;64.68
56070;BME280;41944;52.078;-0.058;2022-07-22T07:10:13;101878.13;;;19.63;64.45
56070;BME280;41944;52.078;-0.058;2022-07-22T07:12:40;101878.96;;;19.81;64.24
56070;BME280;41944;52.078;-0.058;2022-07-22T07:15:09;101877.32;;;19.91;63.63
56070;BME280;41944;52.078;-0.058;2022-07-22T07:17:35;101878.26;;;20.05;63.08
56070;BME280;41944;52.078;-0.058;2022-07-22T07:20:03;101882.10;;;20.08;62.96
56070;BME280;41944;52.078;-0.058;2022-07-22T07:22:31;101887.48;;;20.15;63.05
56070;BME280;41944;52.078;-0.058;2022-07-22T07:25:03;101891.78;;;20.22;61.90
56070;BME280;41944;52.078;-0.058;2022-07-22T07:27:30;101885.30;;;20.14;62.24
56070;BME280;41944;52.078;-0.058;2022-07-22T07:29:57;101884.43;;;20.28;61.78
56070;BME280;41944;52.078;-0.058;2022-07-22T07:32:24;101881.22;;;20.20;61.75
56070;BME280;41944;52.078;-0.058;2022-07-22T07:34:50;101882.16;;;20.31;61.59
56070;BME280;41944;52.078;-0.058;2022-07-22T07:37:18;101877.92;;;20.39;61.18
56070;BME280;41944;52.078;-0.058;2022-07-22T07:39:45;101877.41;;;20.53;60.84
56070;BME280;41944;52.078;-0.058;2022-07-22T07:42:13;101879.36;;;20.62;60.76
56070;BME280;41944;52.078;-0.058;2022-07-22T07:44:40;101880.39;;;20.73;60.01
56070;BME280;41944;52.078;-0.058;2022-07-22T07:47:07;101874.20;;;20.87;59.70
56070;BME280;41944;52.078;-0.058;2022-07-22T07:49:33;101872.99;;;21.02;59.08
56070;BME280;41944;52.078;-0.058;2022-07-22T07:52:00;101874.32;;;21.06;58.93
56070;BME280;41944;52.078;-0.058;2022-07-22T07:54:27;101875.59;;;21.22;58.46
56070;BME280;41944;52.078;-0.058;2022-07-22T07:56:54;101878.76;;;21.24;58.26
56070;BME280;41944;52.078;-0.058;2022-07-22T07:59:21;101874.32;;;21.17;58.38
56070;BME280;41944;52.078;-0.058;2022-07-22T08:01:48;101870.72;;;21.19;58.55
56070;BME280;41944;52.078;-0.058;2022-07-22T08:04:15;101863.56;;;21.25;57.87
56070;BME280;41944;52.078;-0.058;2022-07-22T08:06:41;101872.18;;;21.32;57.69
56070;BME280;41944;52.078;-0.058;2022-07-22T08:09:08;101868.70;;;21.39;57.60
56070;BME280;41944;52.078;-0.058;2022-07-22T08:11:35;101865.85;;;21.41;57.44
56070;BME280;41944;52.078;-0.058;2022-07-22T08:14:02;101861.19;;;21.49;56.84
56070;BME280;41944;52.078;-0.058;2022-07-22T08:16:29;101858.97;;;21.46;57.02
56070;BME280;41944;52.078;-0.058;2022-07-22T08:18:56;101857.87;;;21.34;57.67
56070;BME280;41944;52.078;-0.058;2022-07-22T08:21:24;101858.54;;;21.45;57.22
56070;BME280;41944;52.078;-0.058;2022-07-22T08:23:52;101856.80;;;21.39;57.43
56070;BME280;41944;52.078;-0.058;2022-07-22T08:26:19;101858.93;;;21.37;57.38
56070;BME280;41944;52.078;-0.058;2022-07-22T08:28:46;101859.43;;;21.38;57.25
56070;BME280;41944;52.078;-0.058;2022-07-22T08:31:14;101854.62;;;21.41;57.27
56070;BME280;41944;52.078;-0.058;2022-07-22T08:33:42;101856.32;;;21.44;57.54
56070;BME280;41944;52.078;-0.058;2022-07-22T08:36:09;101855.31;;;21.52;57.12
56070;BME280;41944;52.078;-0.058;2022-07-22T08:38:37;101858.70;;;21.74;56.68
56070;BME280;41944;52.078;-0.058;2022-07-22T08:41:04;101856.47;;;21.81;56.71
56070;BME280;41944;52.078;-0.058;2022-07-22T08:43:35;101856.68;;;21.85;56.27
56070;BME280;41944;52.078;-0.058;2022-07-22T08:46:05;101860.17;;;21.70;56.30
56070;BME280;41944;52.078;-0.058;2022-07-22T08:48:32;101857.04;;;21.64;56.76
56070;BME280;41944;52.078;-0.058;2022-07-22T08:51:03;101859.69;;;21.67;56.56
56070;BME280;41944;52.078;-0.058;2022-07-22T08:53:30;101859.54;;;21.61;56.67
56070;BME280;41944;52.078;-0.058;2022-07-22T08:55:57;101858.51;;;21.57;56.83
56070;BME280;41944;52.078;-0.058;2022-07-22T08:58:24;101857.80;;;21.69;56.65
56070;BME280;41944;52.078;-0.058;2022-07-22T09:01:04;101862.81;;;21.71;56.40
56070;BME280;41944;52.078;-0.058;2022-07-22T09:03:32;101859.06;;;21.53;56.61
56070;BME280;41944;52.078;-0.058;2022-07-22T09:06:00;101859.31;;;21.50;56.51
56070;BME280;41944;52.078;-0.058;2022-07-22T09:08:27;101857.55;;;21.45;56.51
56070;BME280;41944;52.078;-0.058;2022-07-22T09:10:54;101856.63;;;21.49;56.31
56070;BME280;41944;52.078;-0.058;2022-07-22T09:13:23;101858.25;;;21.51;55.99
56070;BME280;41944;52.078;-0.058;2022-07-22T09:15:53;101858.12;;;21.59;55.53
56070;BME280;41944;52.078;-0.058;2022-07-22T09:18:20;101857.34;;;21.75;55.07
56070;BME280;41944;52.078;-0.058;2022-07-22T09:20:48;101852.99;;;22.00;54.70
56070;BME280;41944;52.078;-0.058;2022-07-22T09:23:17;101858.62;;;22.21;54.27
56070;BME280;41944;52.078;-0.058;2022-07-22T09:25:45;101855.16;;;22.49;52.79
56070;BME280;41944;52.078;-0.058;2022-07-22T09:28:16;101849.67;;;22.73;52.07
56070;BME280;41944;52.078;-0.058;2022-07-22T09:30:50;101852.59;;;22.84;51.50
56070;BME280;41944;52.078;-0.058;2022-07-22T09:33:17;101854.06;;;23.04;51.60
56070;BME280;41944;52.078;-0.058;2022-07-22T09:35:46;101849.95;;;23.02;51.12
56070;BME280;41944;52.078;-0.058;2022-07-22T09:38:15;101839.18;;;23.26;50.78
56070;BME280;41944;52.078;-0.058;2022-07-22T09:40:44;101836.10;;;23.49;50.20
56070;BME280;41944;52.078;-0.058;2022-07-22T09:43:13;101835.21;;;23.57;49.87
56070;BME280;41944;52.078;-0.058;2022-07-22T09:45:45;101832.32;;;23.57;49.90
56070;BME280;41944;52.078;-0.058;2022-07-22T09:48:13;101831.11;;;23.63;49.19
56070;BME280;41944;52.078;-0.058;2022-07-22T09:50:40;101824.47;;;23.86;48.69
56070;BME280;41944;52.078;-0.058;2022-07-22T09:53:07;101825.36;;;23.91;48.37
56070;BME280;41944;52.078;-0.058;2022-07-22T09:55:34;101824.57;;;24.01;48.65
56070;BME280;41944;52.078;-0.058;2022-07-22T09:58:02;101826.74;;;23.85;48.06
56070;BME280;41944;52.078;-0.058;2022-07-22T10:00:29;101825.44;;;23.97;48.49
56070;BME280;41944;52.078;-0.058;2022-07-22T10:02:57;101822.67;;;24.01;47.87
56070;BME280;41944;52.078;-0.058;2022-07-22T10:05:27;101820.21;;;23.91;47.77
56070;BME280;41944;52.078;-0.058;2022-07-22T10:07:55;101810.56;;;23.87;48.19
56070;BME280;41944;52.078;-0.058;2022-07-22T10:10:25;101814.43;;;24.09;47.73
56070;BME280;41944;52.078;-0.058;2022-07-22T10:12:54;101811.57;;;24.13;46.85
56070;BME280;41944;52.078;-0.058;2022-07-22T10:15:24;101813.59;;;24.14;47.17
56070;BME280;41944;52.078;-0.058;2022-07-22T10:17:54;101810.28;;;24.15;47.28
56070;BME280;41944;52.078;-0.058;2022-07-22T10:20:23;101799.58;;;24.02;47.06
56070;BME280;41944;52.078;-0.058;2022-07-22T10:22:55;101796.83;;;24.26;46.98
56070;BME280;41944;52.078;-0.058;2022-07-22T10:25:24;101795.91;;;24.37;46.14
56070;BME280;41944;52.078;-0.058;2022-07-22T10:27:55;101792.74;;;24.41;46.24
56070;BME280;41944;52.078;-0.058;2022-07-22T10:30:25;101796.34;;;24.46;46.81
56070;BME280;41944;52.078;-0.058;2022-07-22T10:33:10;101785.58;;;24.58;46.32
56070;BME280;41944;52.078;-0.058;2022-07-22T10:35:53;101786.60;;;24.70;45.77
56070;BME280;41944;52.078;-0.058;2022-07-22T10:38:21;101788.72;;;24.81;46.19
56070;BME280;41944;52.078;-0.058;2022-07-22T10:40:51;101785.75;;;24.91;45.68
56070;BME280;41944;52.078;-0.058;2022-07-22T10:43:19;101786.07;;;24.99;45.40
56070;BME280;41944;52.078;-0.058;2022-07-22T10:45:49;101787.28;;;25.12;44.72
56070;BME280;41944;52.078;-0.058;2022-07-22T10:48:19;101789.81;;;25.06;44.80
56070;BME280;41944;52.078;-0.058;2022-07-22T10:50:51;101784.20;;;25.11;44.63
56070;BME280;41944;52.078;-0.058;2022-07-22T10:53:20;101779.08;;;25.07;44.45
56070;BME280;41944;52.078;-0.058;2022-07-22T10:56:07;101771.82;;;25.10;44.67
56070;BME280;41944;52.078;-0.058;2022-07-22T10:58:41;101777.54;;;25.27;44.41
56070;BME280;41944;52.078;-0.058;2022-07-22T11:01:11;101775.67;;;25.15;44.22
56070;BME280;41944;52.078;-0.058;2022-07-22T11:03:40;101766.41;;;24.99;44.68
56070;BME280;41944;52.078;-0.058;2022-07-22T11:06:14;101775.44;;;24.90;45.24
56070;BME280;41944;52.078;-0.058;2022-07-22T11:08:44;101776.32;;;24.74;45.85
56070;BME280;41944;52.078;-0.058;2022-07-22T11:11:11;101774.30;;;24.69;46.12
56070;BME280;41944;52.078;-0.058;2022-07-22T11:13:41;101771.28;;;24.54;46.07
56070;BME280;41944;52.078;-0.058;2022-07-22T11:16:18;101762.85;;;24.50;45.96
56070;BME280;41944;52.078;-0.058;2022-07-22T11:18:47;101765.00;;;24.58;45.68
56070;BME280;41944;52.078;-0.058;2022-07-22T11:21:16;101758.50;;;24.69;45.53
56070;BME280;41944;52.078;-0.058;2022-07-22T11:23:44;101754.82;;;24.91;45.44
56070;BME280;41944;52.078;-0.058;2022-07-22T11:26:15;101757.28;;;25.13;44.66
56070;BME280;41944;52.078;-0.058;2022-07-22T11:28:44;101755.59;;;25.47;44.40
56070;BME280;41944;52.078;-0.058;2022-07-22T11:31:15;101758.55;;;25.80;43.49
56070;BME280;41944;52.078;-0.058;2022-07-22T11:33:44;101757.24;;;25.86;42.82
56070;BME280;41944;52.078;-0.058;2022-07-22T11:36:11;101761.99;;;25.80;43.24
56070;BME280;41944;52.078;-0.058;2022-07-22T11:38:42;101757.57;;;25.74;43.03
56070;BME280;41944;52.078;-0.058;2022-07-22T11:41:10;101752.83;;;25.96;42.97
56070;BME280;41944;52.078;-0.058;2022-07-22T11:43:41;101746.47;;;26.08;42.65
56070;BME280;41944;52.078;-0.058;2022-07-22T11:46:08;101737.48;;;26.24;42.20
56070;BME280;41944;52.078;-0.058;2022-07-22T11:48:35;101742.19;;;26.10;41.94
56070;BME280;41944;52.078;-0.058;2022-07-22T11:51:03;101728.64;;;26.15;42.24
56070;BME280;41944;52.078;-0.058;2022-07-22T11:53:30;101722.00;;;26.14;42.37
56070;BME280;41944;52.078;-0.058;2022-07-22T11:55:58;101716.13;;;26.34;42.17
56070;BME280;41944;52.078;-0.058;2022-07-22T11:58:43;101717.86;;;26.59;41.13
56070;BME280;41944;52.078;-0.058;2022-07-22T12:01:14;101711.32;;;26.76;40.83
56070;BME280;41944;52.078;-0.058;2022-07-22T12:03:45;101705.69;;;26.84;40.93
56070;BME280;41944;52.078;-0.058;2022-07-22T12:06:14;101701.80;;;26.76;41.00
56070;BME280;41944;52.078;-0.058;2022-07-22T12:08:44;101703.92;;;26.51;41.40
56070;BME280;41944;52.078;-0.058;2022-07-22T12:11:14;101697.42;;;26.46;41.24
56070;BME280;41944;52.078;-0.058;2022-07-22T12:13:43;101693.13;;;26.32;42.35
56070;BME280;41944;52.078;-0.058;2022-07-22T12:16:20;101692.23;;;26.49;41.55
56070;BME280;41944;52.078;-0.058;2022-07-22T12:18:54;101689.06;;;26.29;41.87
56070;BME280;41944;52.078;-0.058;2022-07-22T12:21:22;101688.58;;;26.28;42.19
56070;BME280;41944;52.078;-0.058;2022-07-22T12:23:53;101686.16;;;26.10;42.30
56070;BME280;41944;52.078;-0.058;2022-07-22T12:26:37;101690.41;;;26.04;42.47
56070;BME280;41944;52.078;-0.058;2022-07-22T12:29:15;101692.29;;;26.01;42.78
56070;BME280;41944;52.078;-0.058;2022-07-22T12:31:43;101697.89;;;26.02;42.36
56070;BME280;41944;52.078;-0.058;2022-07-22T12:34:11;101695.45;;;26.00;41.98
56070;BME280;41944;52.078;-0.058;2022-07-22T12:36:38;101691.07;;;26.01;41.70
56070;BME280;41944;52.078;-0.058;2022-07-22T12:39:20;101689.66;;;26.13;41.86
56070;BME280;41944;52.078;-0.058;2022-07-22T12:41:50;101682.53;;;26.30;41.34
56070;BME280;41944;52.078;-0.058;2022-07-22T12:44:19;101681.13;;;26.47;41.43